»·PEaware :: DAL571 KLAX-KLAS

DAL571 :: KLAX-KLAS

FLIGHT INFORMATION

Flight Status: Arrived
Operator:
Delta Air Lines
More flights by this operator :: More flights under this callsign
Pilot: John H. (20300)
Aircraft: AIRBUS A320
(A320)
More flights by this aircraft type
Origin: KLAX Los Angeles Intl
United States
Destination: KLAS McCarran Intl
United States
More flights between these airports :: More routes between these airports
Route: +ORCKA3 MISEN KEPEC6
File this flight plan on PilotEdge
Remarks: please go a little easy on me, im new, 1-2 weeks on network, if im wrong then i always correct in next flight, sorry
Altitude:
(Current/Filed)
28,000ft
Speed:
(Current/Filed)
320kts
Departed: 26-Sep-18 08:48 AM
Arrived: 26-Sep-18 09:45 AM
Distance/Time
Traveled:
205nm/0:57
Distance/Time
To Go:
Arrived

Flight Plot

Page will automatically refresh every two minutes.

Flight plan parsing failed; only flown route is shown


Map Options




Map Legend


Flown Route
Filed Route
Departure Airport
Arrival Airport
Navaid (VOR, NDB)
Fix

Horizontal Profiles

Position Reports

Time Latitude Longitude Heading Altitude Ground
Speed
26-Sep-18 08:40 33.941791 -118.407539 88 140ft 0kts
26-Sep-18 08:41 33.941791 -118.407538 88 140ft 0kts
26-Sep-18 08:42 33.941791 -118.407538 88 140ft 0kts
26-Sep-18 08:43 33.941791 -118.407538 88 140ft 0kts
26-Sep-18 08:44 33.941789 -118.407621 88 140ft 2kts
26-Sep-18 08:45 33.941768 -118.408541 88 140ft 0kts
26-Sep-18 08:46 33.941768 -118.408540 88 140ft 0kts
26-Sep-18 08:47 33.941443 -118.408231 155 140ft 3kts
26-Sep-18 08:48 33.938604 -118.407735 166 140ft 18kts
26-Sep-18 08:49 33.938845 -118.399730 82 140ft 38kts
26-Sep-18 08:50 33.940299 -118.385420 83 140ft 47kts
26-Sep-18 08:51 33.940635 -118.380536 125 140ft 0kts
26-Sep-18 08:52 33.939979 -118.380200 219 140ft 4kts
26-Sep-18 08:53 33.939752 -118.381917 262 140ft 21kts
26-Sep-18 08:54 33.934998 -118.427610 264 2136ft 172kts
26-Sep-18 08:55 33.937863 -118.493850 309 4035ft 240kts
26-Sep-18 08:56 33.980614 -118.559150 263 4996ft 275kts
26-Sep-18 08:57 33.945424 -118.640071 213 6354ft 277kts
26-Sep-18 08:58 33.878606 -118.621022 116 8754ft 279kts
26-Sep-18 08:59 33.895319 -118.533433 58 11180ft 297kts
26-Sep-18 09:00 33.939523 -118.439150 60 12002ft 341kts
26-Sep-18 09:01 33.987712 -118.340730 58 11995ft 341kts
26-Sep-18 09:02 34.039617 -118.244276 54 13075ft 346kts
26-Sep-18 09:03 34.095032 -118.146564 54 15281ft 360kts
26-Sep-18 09:04 34.152782 -118.044242 53 17489ft 377kts
26-Sep-18 09:05 34.212774 -117.937590 53 19704ft 387kts
26-Sep-18 09:06 34.273549 -117.829272 53 21910ft 391kts
26-Sep-18 09:07 34.335582 -117.718501 52 23082ft 407kts
26-Sep-18 09:08 34.401772 -117.606066 50 23773ft 413kts
26-Sep-18 09:09 34.468219 -117.494527 50 25919ft 406kts
26-Sep-18 09:10 34.534495 -117.383023 50 27086ft 406kts
26-Sep-18 09:11 34.600412 -117.271775 50 27084ft 406kts
26-Sep-18 09:12 34.666320 -117.160049 50 27140ft 406kts
26-Sep-18 09:13 34.732080 -117.048506 50 27119ft 412kts
26-Sep-18 09:14 34.802455 -116.928688 51 27088ft 458kts
26-Sep-18 09:15 34.879390 -116.796785 51 27062ft 486kts
26-Sep-18 09:16 34.957087 -116.662394 52 27035ft 486kts
26-Sep-18 09:17 35.033563 -116.526075 52 27063ft 485kts
26-Sep-18 09:18 35.106784 -116.398451 45 26196ft 427kts
26-Sep-18 09:19 35.187257 -116.297746 42 24074ft 406kts
26-Sep-18 09:20 35.264907 -116.200045 43 21572ft 394kts
26-Sep-18 09:21 35.340429 -116.104998 44 19080ft 383kts
26-Sep-18 09:22 35.411344 -116.015562 44 16589ft 352kts
26-Sep-18 09:23 35.477951 -115.931284 46 13713ft 336kts
26-Sep-18 09:24 35.538193 -115.854901 46 13008ft 292kts
26-Sep-18 09:25 35.594785 -115.782851 46 13007ft 292kts
26-Sep-18 09:26 35.653243 -115.708406 45 13005ft 307kts
26-Sep-18 09:27 35.712450 -115.632767 46 13000ft 307kts
26-Sep-18 09:28 35.779984 -115.572623 3 12999ft 307kts
26-Sep-18 09:29 35.863926 -115.569720 2 12860ft 290kts
26-Sep-18 09:30 35.942229 -115.564910 6 11539ft 278kts
26-Sep-18 09:31 35.991357 -115.502720 71 11010ft 271kts
26-Sep-18 09:32 36.017931 -115.417226 67 10024ft 268kts
26-Sep-18 09:33 36.027835 -115.323469 97 8007ft 272kts
26-Sep-18 09:34 36.021110 -115.236883 96 8010ft 247kts
26-Sep-18 09:35 36.015046 -115.151471 94 8014ft 249kts
26-Sep-18 09:36 36.009621 -115.071635 95 8004ft 226kts
26-Sep-18 09:37 36.005121 -114.994831 95 7991ft 231kts
26-Sep-18 09:38 36.000343 -114.914728 95 7989ft 235kts
26-Sep-18 09:39 35.995475 -114.834249 95 7989ft 233kts
26-Sep-18 09:40 36.034009 -114.787436 342 6317ft 243kts
26-Sep-18 09:41 36.069499 -114.851513 291 4815ft 216kts
26-Sep-18 09:42 36.080364 -114.911800 271 4232ft 150kts
26-Sep-18 09:43 36.078572 -114.962916 269 2954ft 147kts
26-Sep-18 09:44 36.073797 -115.013640 266 2906ft 149kts
26-Sep-18 09:45 36.073813 -115.064399 268 3200ft 147kts
26-Sep-18 09:46 36.073680 -115.114904 270 2362ft 148kts
26-Sep-18 09:47 36.073649 -115.151285 269 2195ft 31kts
26-Sep-18 09:48 36.074241 -115.155647 3 2195ft 7kts
26-Sep-18 09:49 36.075931 -115.156975 309 2195ft 8kts
26-Sep-18 09:50 36.076777 -115.157822 330 2195ft 0kts

Navigation Log

Ident Type
Flight plan parsing failed, navigation log unavailable